sensor_id;sensor_type;location;lat;lon;timestamp;temperature;humidity
67131;HTU21D;54051;53.464;49.532;2023-08-24T00:02:06;16.17;76.90
67131;HTU21D;54051;53.464;49.532;2023-08-24T00:04:32;16.11;77.11
67131;HTU21D;54051;53.464;49.532;2023-08-24T00:06:59;16.08;77.31
67131;HTU21D;54051;53.464;49.532;2023-08-24T00:09:25;16.10;77.50
67131;HTU21D;54051;53.464;49.532;2023-08-24T00:11:51;16.16;77.27
67131;HTU21D;54051;53.464;49.532;2023-08-24T00:14:17;16.19;77.27
67131;HTU21D;54051;53.464;49.532;2023-08-24T00:16:43;16.16;77.60
67131;HTU21D;54051;53.464;49.532;2023-08-24T00:19:09;16.21;77.50
67131;HTU21D;54051;53.464;49.532;2023-08-24T00:21:35;16.16;77.89
67131;HTU21D;54051;53.464;49.532;2023-08-24T00:24:00;16.16;77.79
67131;HTU21D;54051;53.464;49.532;2023-08-24T00:26:27;16.18;77.50
67131;HTU21D;54051;53.464;49.532;2023-08-24T00:28:53;16.16;77.36
67131;HTU21D;54051;53.464;49.532;2023-08-24T00:31:19;16.12;77.45
67131;HTU21D;54051;53.464;49.532;2023-08-24T00:33:45;16.10;77.65
67131;HTU21D;54051;53.464;49.532;2023-08-24T00:36:11;16.12;77.53
67131;HTU21D;54051;53.464;49.532;2023-08-24T00:38:36;16.08;77.55
67131;HTU21D;54051;53.464;49.532;2023-08-24T00:41:02;16.06;77.52
67131;HTU21D;54051;53.464;49.532;2023-08-24T00:43:28;15.99;77.82
67131;HTU21D;54051;53.464;49.532;2023-08-24T00:45:59;15.97;78.08
67131;HTU21D;54051;53.464;49.532;2023-08-24T00:48:25;15.92;78.51
67131;HTU21D;54051;53.464;49.532;2023-08-24T00:50:58;15.86;78.97
67131;HTU21D;54051;53.464;49.532;2023-08-24T00:53:24;15.75;79.46
67131;HTU21D;54051;53.464;49.532;2023-08-24T00:55:52;15.71;79.79
67131;HTU21D;54051;53.464;49.532;2023-08-24T00:58:18;15.70;79.78
67131;HTU21D;54051;53.464;49.532;2023-08-24T01:00:45;15.75;79.52
67131;HTU21D;54051;53.464;49.532;2023-08-24T01:03:11;15.77;79.45
67131;HTU21D;54051;53.464;49.532;2023-08-24T01:05:37;15.74;79.58
67131;HTU21D;54051;53.464;49.532;2023-08-24T01:08:03;15.69;80.03
67131;HTU21D;54051;53.464;49.532;2023-08-24T01:10:30;15.63;80.18
67131;HTU21D;54051;53.464;49.532;2023-08-24T01:13:07;15.63;80.24
67131;HTU21D;54051;53.464;49.532;2023-08-24T01:18:10;15.68;80.53
67131;HTU21D;54051;53.464;49.532;2023-08-24T01:20:36;15.65;80.98
67131;HTU21D;54051;53.464;49.532;2023-08-24T01:23:04;15.60;81.39
67131;HTU21D;54051;53.464;49.532;2023-08-24T01:28:08;15.57;82.11
67131;HTU21D;54051;53.464;49.532;2023-08-24T01:30:34;15.57;82.26
67131;HTU21D;54051;53.464;49.532;2023-08-24T01:33:03;15.60;81.90
67131;HTU21D;54051;53.464;49.532;2023-08-24T01:35:37;15.65;81.49
67131;HTU21D;54051;53.464;49.532;2023-08-24T01:38:03;15.65;81.33
67131;HTU21D;54051;53.464;49.532;2023-08-24T01:43:14;15.75;80.17
67131;HTU21D;54051;53.464;49.532;2023-08-24T01:45:41;15.72;80.25
67131;HTU21D;54051;53.464;49.532;2023-08-24T01:48:07;15.62;80.83
67131;HTU21D;54051;53.464;49.532;2023-08-24T01:50:35;15.69;80.50
67131;HTU21D;54051;53.464;49.532;2023-08-24T01:53:01;15.66;80.62
67131;HTU21D;54051;53.464;49.532;2023-08-24T01:55:27;15.73;80.28
67131;HTU21D;54051;53.464;49.532;2023-08-24T01:57:54;15.72;79.98
67131;HTU21D;54051;53.464;49.532;2023-08-24T02:00:20;15.68;80.21
67131;HTU21D;54051;53.464;49.532;2023-08-24T02:02:46;15.72;79.92
67131;HTU21D;54051;53.464;49.532;2023-08-24T02:05:12;15.77;79.57
67131;HTU21D;54051;53.464;49.532;2023-08-24T02:07:38;15.81;79.55
67131;HTU21D;54051;53.464;49.532;2023-08-24T02:10:05;15.85;79.01
67131;HTU21D;54051;53.464;49.532;2023-08-24T02:12:31;15.90;78.65
67131;HTU21D;54051;53.464;49.532;2023-08-24T02:14:57;15.92;78.45
67131;HTU21D;54051;53.464;49.532;2023-08-24T02:17:23;15.89;77.64
67131;HTU21D;54051;53.464;49.532;2023-08-24T02:19:49;15.89;77.56
67131;HTU21D;54051;53.464;49.532;2023-08-24T02:22:15;15.87;77.22
67131;HTU21D;54051;53.464;49.532;2023-08-24T02:24:41;15.84;77.56
67131;HTU21D;54051;53.464;49.532;2023-08-24T02:27:07;15.84;77.66
67131;HTU21D;54051;53.464;49.532;2023-08-24T02:29:34;15.83;77.97
67131;HTU21D;54051;53.464;49.532;2023-08-24T02:31:59;15.91;77.34
67131;HTU21D;54051;53.464;49.532;2023-08-24T02:34:25;15.93;77.24
67131;HTU21D;54051;53.464;49.532;2023-08-24T02:36:52;15.92;76.98
67131;HTU21D;54051;53.464;49.532;2023-08-24T02:39:18;15.90;76.96
67131;HTU21D;54051;53.464;49.532;2023-08-24T02:41:43;15.85;77.24
67131;HTU21D;54051;53.464;49.532;2023-08-24T02:44:09;15.86;77.50
67131;HTU21D;54051;53.464;49.532;2023-08-24T02:46:35;15.90;77.56
67131;HTU21D;54051;53.464;49.532;2023-08-24T02:49:01;15.99;77.66
67131;HTU21D;54051;53.464;49.532;2023-08-24T02:51:27;16.11;77.44
67131;HTU21D;54051;53.464;49.532;2023-08-24T02:53:52;16.04;77.97
67131;HTU21D;54051;53.464;49.532;2023-08-24T02:56:18;16.02;78.22
67131;HTU21D;54051;53.464;49.532;2023-08-24T02:58:44;16.00;78.26
67131;HTU21D;54051;53.464;49.532;2023-08-24T03:01:10;15.95;78.63
67131;HTU21D;54051;53.464;49.532;2023-08-24T03:03:36;15.98;78.68
67131;HTU21D;54051;53.464;49.532;2023-08-24T03:06:06;16.04;78.44
67131;HTU21D;54051;53.464;49.532;2023-08-24T03:08:33;16.17;77.96
67131;HTU21D;54051;53.464;49.532;2023-08-24T03:10:59;16.24;77.85
67131;HTU21D;54051;53.464;49.532;2023-08-24T03:13:25;16.28;77.60
67131;HTU21D;54051;53.464;49.532;2023-08-24T03:15:51;16.32;77.46
67131;HTU21D;54051;53.464;49.532;2023-08-24T03:18:20;16.34;77.20
67131;HTU21D;54051;53.464;49.532;2023-08-24T03:20:47;16.44;76.67
67131;HTU21D;54051;53.464;49.532;2023-08-24T03:23:13;16.52;75.92
67131;HTU21D;54051;53.464;49.532;2023-08-24T03:25:40;16.51;75.30
67131;HTU21D;54051;53.464;49.532;2023-08-24T03:28:07;16.47;75.10
67131;HTU21D;54051;53.464;49.532;2023-08-24T03:30:38;16.56;74.63
67131;HTU21D;54051;53.464;49.532;2023-08-24T03:33:04;16.58;74.59
67131;HTU21D;54051;53.464;49.532;2023-08-24T03:35:30;16.77;73.66
67131;HTU21D;54051;53.464;49.532;2023-08-24T03:37:56;16.89;72.96
67131;HTU21D;54051;53.464;49.532;2023-08-24T03:40:22;16.89;72.90
67131;HTU21D;54051;53.464;49.532;2023-08-24T03:42:48;16.84;73.05
67131;HTU21D;54051;53.464;49.532;2023-08-24T03:45:13;16.84;72.45
67131;HTU21D;54051;53.464;49.532;2023-08-24T03:47:39;16.86;72.39
67131;HTU21D;54051;53.464;49.532;2023-08-24T03:50:05;16.90;70.90
67131;HTU21D;54051;53.464;49.532;2023-08-24T03:52:31;16.86;70.75
67131;HTU21D;54051;53.464;49.532;2023-08-24T03:54:57;16.93;70.45
67131;HTU21D;54051;53.464;49.532;2023-08-24T03:57:23;17.04;69.54
67131;HTU21D;54051;53.464;49.532;2023-08-24T03:59:49;16.92;69.29
67131;HTU21D;54051;53.464;49.532;2023-08-24T04:02:15;16.93;68.73
67131;HTU21D;54051;53.464;49.532;2023-08-24T04:04:41;16.87;68.33
67131;HTU21D;54051;53.464;49.532;2023-08-24T04:07:07;16.88;67.91
67131;HTU21D;54051;53.464;49.532;2023-08-24T04:09:33;16.82;68.18
67131;HTU21D;54051;53.464;49.532;2023-08-24T04:11:59;16.77;67.83
67131;HTU21D;54051;53.464;49.532;2023-08-24T04:14:24;16.70;65.88
67131;HTU21D;54051;53.464;49.532;2023-08-24T04:16:50;16.63;65.25
67131;HTU21D;54051;53.464;49.532;2023-08-24T04:19:17;16.74;63.67
67131;HTU21D;54051;53.464;49.532;2023-08-24T04:21:43;16.82;63.28
67131;HTU21D;54051;53.464;49.532;2023-08-24T04:24:09;17.04;62.45
67131;HTU21D;54051;53.464;49.532;2023-08-24T04:26:36;17.03;62.33
67131;HTU21D;54051;53.464;49.532;2023-08-24T04:29:02;17.04;62.57
67131;HTU21D;54051;53.464;49.532;2023-08-24T04:31:28;17.08;62.30
67131;HTU21D;54051;53.464;49.532;2023-08-24T04:33:54;17.04;62.13
67131;HTU21D;54051;53.464;49.532;2023-08-24T04:36:20;16.99;62.25
67131;HTU21D;54051;53.464;49.532;2023-08-24T04:38:45;16.96;62.24
67131;HTU21D;54051;53.464;49.532;2023-08-24T04:41:11;17.01;62.15
67131;HTU21D;54051;53.464;49.532;2023-08-24T04:43:37;17.03;62.44
67131;HTU21D;54051;53.464;49.532;2023-08-24T04:46:03;17.02;62.55
67131;HTU21D;54051;53.464;49.532;2023-08-24T04:48:29;17.00;62.85
67131;HTU21D;54051;53.464;49.532;2023-08-24T04:51:00;17.09;62.76
67131;HTU21D;54051;53.464;49.532;2023-08-24T04:53:25;17.17;62.88
67131;HTU21D;54051;53.464;49.532;2023-08-24T04:55:51;17.18;62.86
67131;HTU21D;54051;53.464;49.532;2023-08-24T04:58:17;17.41;61.92
67131;HTU21D;54051;53.464;49.532;2023-08-24T05:00:43;17.55;61.25
67131;HTU21D;54051;53.464;49.532;2023-08-24T05:03:09;17.56;61.57
67131;HTU21D;54051;53.464;49.532;2023-08-24T05:05:35;17.87;60.78
67131;HTU21D;54051;53.464;49.532;2023-08-24T05:08:01;18.14;59.73
67131;HTU21D;54051;53.464;49.532;2023-08-24T05:10:31;18.32;59.34
67131;HTU21D;54051;53.464;49.532;2023-08-24T05:12:57;18.26;59.47
67131;HTU21D;54051;53.464;49.532;2023-08-24T05:15:23;18.50;58.80
67131;HTU21D;54051;53.464;49.532;2023-08-24T05:17:48;18.51;58.92
67131;HTU21D;54051;53.464;49.532;2023-08-24T05:20:14;18.53;59.03
67131;HTU21D;54051;53.464;49.532;2023-08-24T05:22:40;18.48;59.02
67131;HTU21D;54051;53.464;49.532;2023-08-24T05:25:06;18.52;58.67
67131;HTU21D;54051;53.464;49.532;2023-08-24T05:27:32;18.46;59.22
67131;HTU21D;54051;53.464;49.532;2023-08-24T05:29:58;18.39;59.54
67131;HTU21D;54051;53.464;49.532;2023-08-24T05:32:24;18.39;59.51
67131;HTU21D;54051;53.464;49.532;2023-08-24T05:34:50;18.22;58.71
67131;HTU21D;54051;53.464;49.532;2023-08-24T05:37:16;18.15;59.40
67131;HTU21D;54051;53.464;49.532;2023-08-24T05:39:42;18.12;59.09
67131;HTU21D;54051;53.464;49.532;2023-08-24T05:42:08;18.15;58.44
67131;HTU21D;54051;53.464;49.532;2023-08-24T05:44:34;18.17;58.21
67131;HTU21D;54051;53.464;49.532;2023-08-24T05:47:00;18.19;57.53
67131;HTU21D;54051;53.464;49.532;2023-08-24T05:49:25;18.19;56.15
67131;HTU21D;54051;53.464;49.532;2023-08-24T05:51:52;18.11;56.01
67131;HTU21D;54051;53.464;49.532;2023-08-24T05:54:18;18.11;56.14
67131;HTU21D;54051;53.464;49.532;2023-08-24T05:56:47;18.13;56.59
67131;HTU21D;54051;53.464;49.532;2023-08-24T05:59:13;18.15;57.08
67131;HTU21D;54051;53.464;49.532;2023-08-24T06:01:39;18.19;56.68
67131;HTU21D;54051;53.464;49.532;2023-08-24T06:04:09;18.28;55.77
67131;HTU21D;54051;53.464;49.532;2023-08-24T06:06:35;18.25;56.26
67131;HTU21D;54051;53.464;49.532;2023-08-24T06:09:02;18.18;56.48
67131;HTU21D;54051;53.464;49.532;2023-08-24T06:11:30;18.28;56.52
67131;HTU21D;54051;53.464;49.532;2023-08-24T06:13:56;18.43;55.58
67131;HTU21D;54051;53.464;49.532;2023-08-24T06:16:22;18.39;55.55
67131;HTU21D;54051;53.464;49.532;2023-08-24T06:18:47;18.36;55.75
67131;HTU21D;54051;53.464;49.532;2023-08-24T06:21:15;18.35;55.94
67131;HTU21D;54051;53.464;49.532;2023-08-24T06:23:41;18.40;55.71
67131;HTU21D;54051;53.464;49.532;2023-08-24T06:26:08;18.27;55.88
67131;HTU21D;54051;53.464;49.532;2023-08-24T06:28:34;18.22;56.23
67131;HTU21D;54051;53.464;49.532;2023-08-24T06:31:00;18.33;56.36
67131;HTU21D;54051;53.464;49.532;2023-08-24T06:33:44;18.44;56.17
67131;HTU21D;54051;53.464;49.532;2023-08-24T06:36:11;18.43;56.26
67131;HTU21D;54051;53.464;49.532;2023-08-24T06:38:37;18.35;56.45
67131;HTU21D;54051;53.464;49.532;2023-08-24T06:41:03;18.35;56.45
67131;HTU21D;54051;53.464;49.532;2023-08-24T06:43:29;18.43;55.84
67131;HTU21D;54051;53.464;49.532;2023-08-24T06:45:55;18.32;55.72
67131;HTU21D;54051;53.464;49.532;2023-08-24T06:48:21;18.12;56.32
67131;HTU21D;54051;53.464;49.532;2023-08-24T06:50:46;17.97;56.93
67131;HTU21D;54051;53.464;49.532;2023-08-24T06:53:12;17.81;57.61
67131;HTU21D;54051;53.464;49.532;2023-08-24T06:55:40;17.84;57.87
67131;HTU21D;54051;53.464;49.532;2023-08-24T06:58:06;18.44;56.12
67131;HTU21D;54051;53.464;49.532;2023-08-24T07:00:32;19.14;53.39
67131;HTU21D;54051;53.464;49.532;2023-08-24T07:02:59;19.30;53.08
67131;HTU21D;54051;53.464;49.532;2023-08-24T07:05:25;19.67;52.05
67131;HTU21D;54051;53.464;49.532;2023-08-24T07:07:51;19.68;51.98
67131;HTU21D;54051;53.464;49.532;2023-08-24T07:10:16;19.42;52.68
67131;HTU21D;54051;53.464;49.532;2023-08-24T07:12:43;19.09;53.78
67131;HTU21D;54051;53.464;49.532;2023-08-24T07:15:10;18.84;55.36
67131;HTU21D;54051;53.464;49.532;2023-08-24T07:17:36;18.77;57.43
67131;HTU21D;54051;53.464;49.532;2023-08-24T07:20:02;18.40;58.57
67131;HTU21D;54051;53.464;49.532;2023-08-24T07:22:31;17.79;61.35
67131;HTU21D;54051;53.464;49.532;2023-08-24T07:24:56;17.58;62.46
67131;HTU21D;54051;53.464;49.532;2023-08-24T07:27:22;17.62;63.03
67131;HTU21D;54051;53.464;49.532;2023-08-24T07:29:48;17.77;62.21
67131;HTU21D;54051;53.464;49.532;2023-08-24T07:32:14;18.00;64.15
67131;HTU21D;54051;53.464;49.532;2023-08-24T07:34:40;18.12;62.34
67131;HTU21D;54051;53.464;49.532;2023-08-24T07:37:06;18.12;63.58
67131;HTU21D;54051;53.464;49.532;2023-08-24T07:39:32;17.90;63.93
67131;HTU21D;54051;53.464;49.532;2023-08-24T07:41:58;17.51;65.76
67131;HTU21D;54051;53.464;49.532;2023-08-24T07:44:23;17.39;66.14
67131;HTU21D;54051;53.464;49.532;2023-08-24T07:46:49;17.20;68.01
67131;HTU21D;54051;53.464;49.532;2023-08-24T07:49:15;16.93;68.46
67131;HTU21D;54051;53.464;49.532;2023-08-24T07:51:41;16.92;68.96
67131;HTU21D;54051;53.464;49.532;2023-08-24T07:54:08;16.93;69.29
67131;HTU21D;54051;53.464;49.532;2023-08-24T07:56:34;16.96;69.21
67131;HTU21D;54051;53.464;49.532;2023-08-24T07:59:00;16.96;69.24
67131;HTU21D;54051;53.464;49.532;2023-08-24T08:01:26;16.99;70.26
67131;HTU21D;54051;53.464;49.532;2023-08-24T08:03:52;17.15;70.26
67131;HTU21D;54051;53.464;49.532;2023-08-24T08:06:18;17.23;69.23
67131;HTU21D;54051;53.464;49.532;2023-08-24T08:08:44;17.24;70.18
67131;HTU21D;54051;53.464;49.532;2023-08-24T08:11:12;16.85;69.72
67131;HTU21D;54051;53.464;49.532;2023-08-24T08:13:37;16.67;71.93
67131;HTU21D;54051;53.464;49.532;2023-08-24T08:16:04;16.84;71.24
67131;HTU21D;54051;53.464;49.532;2023-08-24T08:18:30;17.03;70.57
67131;HTU21D;54051;53.464;49.532;2023-08-24T08:20:56;17.16;71.00
67131;HTU21D;54051;53.464;49.532;2023-08-24T08:23:22;17.08;70.94
67131;HTU21D;54051;53.464;49.532;2023-08-24T08:25:48;17.25;70.16
67131;HTU21D;54051;53.464;49.532;2023-08-24T08:28:14;17.22;70.35
67131;HTU21D;54051;53.464;49.532;2023-08-24T08:30:40;17.04;70.29
67131;HTU21D;54051;53.464;49.532;2023-08-24T08:33:06;16.76;72.06
67131;HTU21D;54051;53.464;49.532;2023-08-24T08:35:32;16.73;72.40
67131;HTU21D;54051;53.464;49.532;2023-08-24T08:37:58;16.63;72.96
67131;HTU21D;54051;53.464;49.532;2023-08-24T08:40:24;16.66;72.91
67131;HTU21D;54051;53.464;49.532;2023-08-24T08:42:55;16.80;71.74
67131;HTU21D;54051;53.464;49.532;2023-08-24T08:45:21;16.67;72.59
67131;HTU21D;54051;53.464;49.532;2023-08-24T08:47:49;16.78;73.38
67131;HTU21D;54051;53.464;49.532;2023-08-24T08:50:15;17.03;72.64
67131;HTU21D;54051;53.464;49.532;2023-08-24T08:53:00;17.20;71.03
67131;HTU21D;54051;53.464;49.532;2023-08-24T08:55:26;17.30;70.54
67131;HTU21D;54051;53.464;49.532;2023-08-24T08:57:53;17.22;70.61
67131;HTU21D;54051;53.464;49.532;2023-08-24T09:00:23;17.58;69.86
67131;HTU21D;54051;53.464;49.532;2023-08-24T09:02:49;17.81;68.61
67131;HTU21D;54051;53.464;49.532;2023-08-24T09:05:17;17.83;67.78
67131;HTU21D;54051;53.464;49.532;2023-08-24T09:07:43;17.91;67.91
67131;HTU21D;54051;53.464;49.532;2023-08-24T09:10:09;18.12;66.72
67131;HTU21D;54051;53.464;49.532;2023-08-24T09:12:35;18.06;65.97
67131;HTU21D;54051;53.464;49.532;2023-08-24T09:15:04;17.68;66.81
67131;HTU21D;54051;53.464;49.532;2023-08-24T09:17:32;17.65;66.57
67131;HTU21D;54051;53.464;49.532;2023-08-24T09:19:58;17.66;65.62
67131;HTU21D;54051;53.464;49.532;2023-08-24T09:22:24;17.63;65.06
67131;HTU21D;54051;53.464;49.532;2023-08-24T09:24:50;17.52;65.61
67131;HTU21D;54051;53.464;49.532;2023-08-24T09:27:17;17.58;64.95
67131;HTU21D;54051;53.464;49.532;2023-08-24T09:29:50;17.73;64.27
67131;HTU21D;54051;53.464;49.532;2023-08-24T09:32:23;17.62;65.87
67131;HTU21D;54051;53.464;49.532;2023-08-24T09:34:49;17.49;65.50
67131;HTU21D;54051;53.464;49.532;2023-08-24T09:37:15;17.20;67.17
67131;HTU21D;54051;53.464;49.532;2023-08-24T09:39:41;16.77;69.27
67131;HTU21D;54051;53.464;49.532;2023-08-24T09:42:07;16.59;71.03
67131;HTU21D;54051;53.464;49.532;2023-08-24T09:44:33;16.51;71.06
67131;HTU21D;54051;53.464;49.532;2023-08-24T09:46:59;16.67;71.77
67131;HTU21D;54051;53.464;49.532;2023-08-24T09:49:25;16.85;68.16
67131;HTU21D;54051;53.464;49.532;2023-08-24T09:51:56;16.88;68.86
67131;HTU21D;54051;53.464;49.532;2023-08-24T09:54:26;17.25;69.26
67131;HTU21D;54051;53.464;49.532;2023-08-24T09:56:52;17.54;66.33
67131;HTU21D;54051;53.464;49.532;2023-08-24T09:59:20;17.50;66.86
67131;HTU21D;54051;53.464;49.532;2023-08-24T10:01:50;17.74;66.50
67131;HTU21D;54051;53.464;49.532;2023-08-24T10:04:17;17.68;66.59
67131;HTU21D;54051;53.464;49.532;2023-08-24T10:06:47;17.75;66.46
67131;HTU21D;54051;53.464;49.532;2023-08-24T10:09:27;17.52;67.14
67131;HTU21D;54051;53.464;49.532;2023-08-24T10:11:58;17.51;67.08
67131;HTU21D;54051;53.464;49.532;2023-08-24T10:14:29;17.50;67.65
67131;HTU21D;54051;53.464;49.532;2023-08-24T10:16:56;17.23;68.41
67131;HTU21D;54051;53.464;49.532;2023-08-24T10:19:22;17.10;68.87
67131;HTU21D;54051;53.464;49.532;2023-08-24T10:21:49;17.04;68.13
67131;HTU21D;54051;53.464;49.532;2023-08-24T10:24:16;16.81;69.90
67131;HTU21D;54051;53.464;49.532;2023-08-24T10:26:46;16.76;69.33
67131;HTU21D;54051;53.464;49.532;2023-08-24T10:29:11;16.67;70.17
67131;HTU21D;54051;53.464;49.532;2023-08-24T10:31:39;16.72;71.05
67131;HTU21D;54051;53.464;49.532;2023-08-24T10:34:06;16.95;69.27
67131;HTU21D;54051;53.464;49.532;2023-08-24T10:36:32;16.73;69.66
67131;HTU21D;54051;53.464;49.532;2023-08-24T10:39:01;16.45;71.19
67131;HTU21D;54051;53.464;49.532;2023-08-24T10:41:30;16.27;72.16
67131;HTU21D;54051;53.464;49.532;2023-08-24T10:44:11;16.00;73.73
67131;HTU21D;54051;53.464;49.532;2023-08-24T10:46:45;15.91;75.15
67131;HTU21D;54051;53.464;49.532;2023-08-24T10:49:31;15.98;74.31
67131;HTU21D;54051;53.464;49.532;2023-08-24T10:51:57;15.77;72.40
67131;HTU21D;54051;53.464;49.532;2023-08-24T10:54:30;15.75;74.09
67131;HTU21D;54051;53.464;49.532;2023-08-24T10:56:56;15.80;72.78
67131;HTU21D;54051;53.464;49.532;2023-08-24T10:59:24;15.59;72.92
67131;HTU21D;54051;53.464;49.532;2023-08-24T11:04:19;15.02;74.35
67131;HTU21D;54051;53.464;49.532;2023-08-24T11:06:51;14.93;75.77
67131;HTU21D;54051;53.464;49.532;2023-08-24T11:09:18;14.94;74.63
67131;HTU21D;54051;53.464;49.532;2023-08-24T11:11:57;15.01;75.18
67131;HTU21D;54051;53.464;49.532;2023-08-24T11:14:23;15.09;75.05
67131;HTU21D;54051;53.464;49.532;2023-08-24T11:16:56;15.17;75.22
67131;HTU21D;54051;53.464;49.532;2023-08-24T11:19:22;15.43;75.93
67131;HTU21D;54051;53.464;49.532;2023-08-24T11:21:48;15.85;74.06
67131;HTU21D;54051;53.464;49.532;2023-08-24T11:24:14;16.02;72.98
67131;HTU21D;54051;53.464;49.532;2023-08-24T11:26:42;15.87;73.87
67131;HTU21D;54051;53.464;49.532;2023-08-24T11:29:10;15.84;73.40
67131;HTU21D;54051;53.464;49.532;2023-08-24T11:31:36;16.01;72.81
67131;HTU21D;54051;53.464;49.532;2023-08-24T11:34:02;15.99;73.12
67131;HTU21D;54051;53.464;49.532;2023-08-24T11:36:40;15.86;73.65
67131;HTU21D;54051;53.464;49.532;2023-08-24T11:39:06;15.71;74.77
67131;HTU21D;54051;53.464;49.532;2023-08-24T11:41:32;15.53;74.96
67131;HTU21D;54051;53.464;49.532;2023-08-24T11:43:59;15.60;73.80
67131;HTU21D;54051;53.464;49.532;2023-08-24T11:46:25;15.56;74.03
67131;HTU21D;54051;53.464;49.532;2023-08-24T11:48:51;15.48;73.68
67131;HTU21D;54051;53.464;49.532;2023-08-24T11:51:17;15.38;74.22
67131;HTU21D;54051;53.464;49.532;2023-08-24T11:53:43;15.57;73.79
67131;HTU21D;54051;53.464;49.532;2023-08-24T11:56:09;15.68;74.34
67131;HTU21D;54051;53.464;49.532;2023-08-24T11:58:39;15.76;73.86
67131;HTU21D;54051;53.464;49.532;2023-08-24T12:01:06;16.00;72.87
67131;HTU21D;54051;53.464;49.532;2023-08-24T12:03:32;16.12;70.86
67131;HTU21D;54051;53.464;49.532;2023-08-24T12:06:01;16.46;71.02
67131;HTU21D;54051;53.464;49.532;2023-08-24T12:08:28;16.74;68.87
67131;HTU21D;54051;53.464;49.532;2023-08-24T12:10:54;16.66;69.34
67131;HTU21D;54051;53.464;49.532;2023-08-24T12:13:21;16.76;68.27
67131;HTU21D;54051;53.464;49.532;2023-08-24T12:15:47;16.60;68.90
67131;HTU21D;54051;53.464;49.532;2023-08-24T12:18:16;16.39;69.65
67131;HTU21D;54051;53.464;49.532;2023-08-24T12:20:42;16.22;71.18
67131;HTU21D;54051;53.464;49.532;2023-08-24T12:23:09;16.43;70.80
67131;HTU21D;54051;53.464;49.532;2023-08-24T12:25:41;16.40;69.96
67131;HTU21D;54051;53.464;49.532;2023-08-24T12:28:11;16.45;69.51
67131;HTU21D;54051;53.464;49.532;2023-08-24T12:30:47;16.36;70.13
67131;HTU21D;54051;53.464;49.532;2023-08-24T12:33:26;16.56;69.34
67131;HTU21D;54051;53.464;49.532;2023-08-24T12:35:53;16.56;69.09
67131;HTU21D;54051;53.464;49.532;2023-08-24T12:38:19;16.62;68.95
67131;HTU21D;54051;53.464;49.532;2023-08-24T12:40:45;16.49;69.46
67131;HTU21D;54051;53.464;49.532;2023-08-24T12:43:11;16.70;68.39
67131;HTU21D;54051;53.464;49.532;2023-08-24T12:45:36;16.62;69.78
67131;HTU21D;54051;53.464;49.532;2023-08-24T12:48:04;16.44;69.61
67131;HTU21D;54051;53.464;49.532;2023-08-24T12:50:30;16.18;70.44
67131;HTU21D;54051;53.464;49.532;2023-08-24T12:52:55;16.15;70.55
67131;HTU21D;54051;53.464;49.532;2023-08-24T12:55:25;16.17;70.44
67131;HTU21D;54051;53.464;49.532;2023-08-24T12:57:51;16.51;68.02
67131;HTU21D;54051;53.464;49.532;2023-08-24T13:00:18;16.65;67.34
67131;HTU21D;54051;53.464;49.532;2023-08-24T13:02:44;16.62;66.68
67131;HTU21D;54051;53.464;49.532;2023-08-24T13:05:10;16.48;67.87
67131;HTU21D;54051;53.464;49.532;2023-08-24T13:07:36;16.80;67.69
67131;HTU21D;54051;53.464;49.532;2023-08-24T13:10:02;16.74;66.41
67131;HTU21D;54051;53.464;49.532;2023-08-24T13:12:29;16.42;67.49
67131;HTU21D;54051;53.464;49.532;2023-08-24T13:14:54;16.44;68.07
67131;HTU21D;54051;53.464;49.532;2023-08-24T13:17:20;16.42;68.25
67131;HTU21D;54051;53.464;49.532;2023-08-24T13:19:46;16.43;68.07
67131;HTU21D;54051;53.464;49.532;2023-08-24T13:22:14;16.36;68.12
67131;HTU21D;54051;53.464;49.532;2023-08-24T13:24:40;16.28;69.21
67131;HTU21D;54051;53.464;49.532;2023-08-24T13:27:08;16.26;69.92
67131;HTU21D;54051;53.464;49.532;2023-08-24T13:29:36;16.47;68.68
67131;HTU21D;54051;53.464;49.532;2023-08-24T13:32:02;16.69;68.25
67131;HTU21D;54051;53.464;49.532;2023-08-24T13:34:28;16.88;67.22
67131;HTU21D;54051;53.464;49.532;2023-08-24T13:36:53;16.90;67.68
67131;HTU21D;54051;53.464;49.532;2023-08-24T13:39:19;17.00;67.21
67131;HTU21D;54051;53.464;49.532;2023-08-24T13:41:45;16.94;67.78
67131;HTU21D;54051;53.464;49.532;2023-08-24T13:44:11;16.89;67.33
67131;HTU21D;54051;53.464;49.532;2023-08-24T13:46:37;16.86;66.88
67131;HTU21D;54051;53.464;49.532;2023-08-24T13:49:02;16.86;66.69
67131;HTU21D;54051;53.464;49.532;2023-08-24T13:51:30;17.04;65.91
67131;HTU21D;54051;53.464;49.532;2023-08-24T13:53:57;17.16;66.29
67131;HTU21D;54051;53.464;49.532;2023-08-24T13:56:26;17.15;65.02
67131;HTU21D;54051;53.464;49.532;2023-08-24T13:59:12;16.94;66.14
67131;HTU21D;54051;53.464;49.532;2023-08-24T14:01:39;16.70;67.27
67131;HTU21D;54051;53.464;49.532;2023-08-24T14:04:05;16.56;67.72
67131;HTU21D;54051;53.464;49.532;2023-08-24T14:06:33;16.43;67.89
67131;HTU21D;54051;53.464;49.532;2023-08-24T14:09:05;16.15;69.30
67131;HTU21D;54051;53.464;49.532;2023-08-24T14:11:31;15.98;69.73
67131;HTU21D;54051;53.464;49.532;2023-08-24T14:13:57;16.00;70.10
67131;HTU21D;54051;53.464;49.532;2023-08-24T14:16:23;16.10;69.90
67131;HTU21D;54051;53.464;49.532;2023-08-24T14:18:49;16.16;69.21
67131;HTU21D;54051;53.464;49.532;2023-08-24T14:21:15;16.12;69.58
67131;HTU21D;54051;53.464;49.532;2023-08-24T14:23:41;15.99;70.44
67131;HTU21D;54051;53.464;49.532;2023-08-24T14:26:08;15.93;70.37
67131;HTU21D;54051;53.464;49.532;2023-08-24T14:31:13;15.60;67.45
67131;HTU21D;54051;53.464;49.532;2023-08-24T14:33:39;15.54;67.55
67131;HTU21D;54051;53.464;49.532;2023-08-24T14:36:05;15.52;67.89
67131;HTU21D;54051;53.464;49.532;2023-08-24T14:38:31;15.46;67.85
67131;HTU21D;54051;53.464;49.532;2023-08-24T14:40:57;15.40;68.20
67131;HTU21D;54051;53.464;49.532;2023-08-24T14:43:23;15.53;68.32
67131;HTU21D;54051;53.464;49.532;2023-08-24T14:45:49;15.48;68.48
67131;HTU21D;54051;53.464;49.532;2023-08-24T14:48:14;15.39;68.91
67131;HTU21D;54051;53.464;49.532;2023-08-24T14:50:40;15.45;69.49
67131;HTU21D;54051;53.464;49.532;2023-08-24T14:53:06;15.65;69.11
67131;HTU21D;54051;53.464;49.532;2023-08-24T14:55:32;15.91;67.28
67131;HTU21D;54051;53.464;49.532;2023-08-24T14:57:58;15.61;68.27
67131;HTU21D;54051;53.464;49.532;2023-08-24T15:00:25;15.52;68.94
67131;HTU21D;54051;53.464;49.532;2023-08-24T15:02:51;15.42;69.16
67131;HTU21D;54051;53.464;49.532;2023-08-24T15:05:16;15.33;69.84
67131;HTU21D;54051;53.464;49.532;2023-08-24T15:07:42;15.25;69.78
67131;HTU21D;54051;53.464;49.532;2023-08-24T15:10:08;15.18;70.33
67131;HTU21D;54051;53.464;49.532;2023-08-24T15:12:34;15.10;70.93
67131;HTU21D;54051;53.464;49.532;2023-08-24T15:15:01;15.02;71.18